sensor_id;sensor_type;location;lat;lon;timestamp;P1;durP1;ratioP1;P2;durP2;ratioP2
30818;SDS011;17546;42.674;23.284;2023-03-15T00:01:38;33.20;;;12.85;;
30818;SDS011;17546;42.674;23.284;2023-03-15T00:04:03;28.85;;;11.75;;
30818;SDS011;17546;42.674;23.284;2023-03-15T00:06:32;28.70;;;11.90;;
30818;SDS011;17546;42.674;23.284;2023-03-15T00:08:59;27.25;;;11.23;;
30818;SDS011;17546;42.674;23.284;2023-03-15T00:11:26;30.83;;;11.88;;
30818;SDS011;17546;42.674;23.284;2023-03-15T00:13:55;25.77;;;12.38;;
30818;SDS011;17546;42.674;23.284;2023-03-15T00:16:21;22.73;;;11.27;;
30818;SDS011;17546;42.674;23.284;2023-03-15T00:18:52;26.25;;;11.43;;
30818;SDS011;17546;42.674;23.284;2023-03-15T00:21:18;23.73;;;11.93;;
30818;SDS011;17546;42.674;23.284;2023-03-15T00:23:44;29.58;;;12.27;;
30818;SDS011;17546;42.674;23.284;2023-03-15T00:26:10;24.42;;;11.75;;
30818;SDS011;17546;42.674;23.284;2023-03-15T00:28:36;24.42;;;11.93;;
30818;SDS011;17546;42.674;23.284;2023-03-15T00:31:12;27.45;;;11.80;;
30818;SDS011;17546;42.674;23.284;2023-03-15T00:33:39;25.63;;;12.27;;
30818;SDS011;17546;42.674;23.284;2023-03-15T00:36:06;28.73;;;12.35;;
30818;SDS011;17546;42.674;23.284;2023-03-15T00:38:33;23.95;;;11.05;;
30818;SDS011;17546;42.674;23.284;2023-03-15T00:41:03;24.98;;;11.13;;
30818;SDS011;17546;42.674;23.284;2023-03-15T00:43:30;27.67;;;11.80;;
30818;SDS011;17546;42.674;23.284;2023-03-15T00:45:56;25.20;;;11.57;;
30818;SDS011;17546;42.674;23.284;2023-03-15T00:48:22;23.50;;;11.32;;
30818;SDS011;17546;42.674;23.284;2023-03-15T00:50:47;27.50;;;11.30;;
30818;SDS011;17546;42.674;23.284;2023-03-15T00:53:13;24.40;;;11.73;;
30818;SDS011;17546;42.674;23.284;2023-03-15T00:55:38;24.77;;;11.82;;
30818;SDS011;17546;42.674;23.284;2023-03-15T00:58:04;33.03;;;11.68;;
30818;SDS011;17546;42.674;23.284;2023-03-15T01:00:29;25.45;;;12.25;;
30818;SDS011;17546;42.674;23.284;2023-03-15T01:02:55;27.73;;;11.50;;
30818;SDS011;17546;42.674;23.284;2023-03-15T01:05:20;28.80;;;12.43;;
30818;SDS011;17546;42.674;23.284;2023-03-15T01:07:46;22.88;;;11.82;;
30818;SDS011;17546;42.674;23.284;2023-03-15T01:10:13;28.70;;;12.13;;
30818;SDS011;17546;42.674;23.284;2023-03-15T01:12:39;28.08;;;11.80;;
30818;SDS011;17546;42.674;23.284;2023-03-15T01:15:06;27.48;;;12.13;;
30818;SDS011;17546;42.674;23.284;2023-03-15T01:17:33;22.45;;;11.05;;
30818;SDS011;17546;42.674;23.284;2023-03-15T01:19:59;22.13;;;11.73;;
30818;SDS011;17546;42.674;23.284;2023-03-15T01:22:25;33.10;;;13.00;;
30818;SDS011;17546;42.674;23.284;2023-03-15T01:24:51;25.75;;;13.23;;
30818;SDS011;17546;42.674;23.284;2023-03-15T01:27:16;28.52;;;13.95;;
30818;SDS011;17546;42.674;23.284;2023-03-15T01:29:42;29.63;;;14.18;;
30818;SDS011;17546;42.674;23.284;2023-03-15T01:32:07;29.20;;;13.70;;
30818;SDS011;17546;42.674;23.284;2023-03-15T01:34:33;27.35;;;13.50;;
30818;SDS011;17546;42.674;23.284;2023-03-15T01:37:00;30.83;;;13.65;;
30818;SDS011;17546;42.674;23.284;2023-03-15T01:39:27;36.28;;;14.70;;
30818;SDS011;17546;42.674;23.284;2023-03-15T01:41:52;25.70;;;13.57;;
30818;SDS011;17546;42.674;23.284;2023-03-15T01:44:18;24.92;;;13.23;;
30818;SDS011;17546;42.674;23.284;2023-03-15T01:46:45;27.13;;;13.77;;
30818;SDS011;17546;42.674;23.284;2023-03-15T01:49:12;28.88;;;13.18;;
30818;SDS011;17546;42.674;23.284;2023-03-15T01:51:42;31.15;;;12.63;;
30818;SDS011;17546;42.674;23.284;2023-03-15T01:57:01;30.02;;;13.85;;
30818;SDS011;17546;42.674;23.284;2023-03-15T01:59:32;24.75;;;13.25;;
30818;SDS011;17546;42.674;23.284;2023-03-15T02:02:01;25.60;;;13.75;;
30818;SDS011;17546;42.674;23.284;2023-03-15T02:04:37;25.73;;;13.18;;
30818;SDS011;17546;42.674;23.284;2023-03-15T02:07:17;27.88;;;13.85;;
30818;SDS011;17546;42.674;23.284;2023-03-15T02:09:59;24.80;;;12.30;;
30818;SDS011;17546;42.674;23.284;2023-03-15T02:12:30;26.70;;;12.73;;
30818;SDS011;17546;42.674;23.284;2023-03-15T02:14:59;28.77;;;12.68;;
30818;SDS011;17546;42.674;23.284;2023-03-15T02:17:28;32.72;;;13.85;;
30818;SDS011;17546;42.674;23.284;2023-03-15T02:22:53;27.80;;;13.18;;
30818;SDS011;17546;42.674;23.284;2023-03-15T02:28:02;26.97;;;13.37;;
30818;SDS011;17546;42.674;23.284;2023-03-15T02:30:29;33.75;;;13.68;;
30818;SDS011;17546;42.674;23.284;2023-03-15T02:32:56;29.10;;;14.02;;
30818;SDS011;17546;42.674;23.284;2023-03-15T02:35:24;29.85;;;13.35;;
30818;SDS011;17546;42.674;23.284;2023-03-15T02:37:55;27.35;;;13.60;;
30818;SDS011;17546;42.674;23.284;2023-03-15T02:40:22;29.20;;;13.30;;
30818;SDS011;17546;42.674;23.284;2023-03-15T02:42:56;27.98;;;13.25;;
30818;SDS011;17546;42.674;23.284;2023-03-15T02:45:39;23.95;;;12.98;;
30818;SDS011;17546;42.674;23.284;2023-03-15T02:48:05;29.00;;;13.75;;
30818;SDS011;17546;42.674;23.284;2023-03-15T02:50:32;29.48;;;13.07;;
30818;SDS011;17546;42.674;23.284;2023-03-15T02:52:58;26.25;;;12.98;;
30818;SDS011;17546;42.674;23.284;2023-03-15T02:55:23;27.23;;;13.23;;
30818;SDS011;17546;42.674;23.284;2023-03-15T02:57:49;27.92;;;13.38;;
30818;SDS011;17546;42.674;23.284;2023-03-15T03:00:14;30.85;;;14.07;;
30818;SDS011;17546;42.674;23.284;2023-03-15T03:02:41;30.40;;;12.98;;
30818;SDS011;17546;42.674;23.284;2023-03-15T03:05:09;29.65;;;13.48;;
30818;SDS011;17546;42.674;23.284;2023-03-15T03:07:36;30.15;;;12.57;;
30818;SDS011;17546;42.674;23.284;2023-03-15T03:10:02;27.85;;;12.88;;
30818;SDS011;17546;42.674;23.284;2023-03-15T03:12:29;34.53;;;13.18;;
30818;SDS011;17546;42.674;23.284;2023-03-15T03:14:54;41.45;;;14.20;;
30818;SDS011;17546;42.674;23.284;2023-03-15T03:17:20;26.13;;;13.60;;
30818;SDS011;17546;42.674;23.284;2023-03-15T03:19:46;28.42;;;13.30;;
30818;SDS011;17546;42.674;23.284;2023-03-15T03:22:12;34.05;;;14.25;;
30818;SDS011;17546;42.674;23.284;2023-03-15T03:24:38;29.20;;;13.70;;
30818;SDS011;17546;42.674;23.284;2023-03-15T03:27:03;31.70;;;14.43;;
30818;SDS011;17546;42.674;23.284;2023-03-15T03:29:29;35.25;;;14.70;;
30818;SDS011;17546;42.674;23.284;2023-03-15T03:31:55;29.58;;;15.18;;
30818;SDS011;17546;42.674;23.284;2023-03-15T03:34:21;31.73;;;15.07;;
30818;SDS011;17546;42.674;23.284;2023-03-15T03:36:46;32.10;;;14.63;;
30818;SDS011;17546;42.674;23.284;2023-03-15T03:39:12;30.38;;;14.77;;
30818;SDS011;17546;42.674;23.284;2023-03-15T03:41:38;32.97;;;14.82;;
30818;SDS011;17546;42.674;23.284;2023-03-15T03:44:04;25.77;;;13.70;;
30818;SDS011;17546;42.674;23.284;2023-03-15T03:46:32;31.33;;;14.55;;
30818;SDS011;17546;42.674;23.284;2023-03-15T03:48:57;26.30;;;14.45;;
30818;SDS011;17546;42.674;23.284;2023-03-15T03:51:23;32.00;;;14.70;;
30818;SDS011;17546;42.674;23.284;2023-03-15T03:53:48;33.88;;;14.75;;
30818;SDS011;17546;42.674;23.284;2023-03-15T03:56:14;33.65;;;13.80;;
30818;SDS011;17546;42.674;23.284;2023-03-15T03:58:39;34.42;;;14.00;;
30818;SDS011;17546;42.674;23.284;2023-03-15T04:01:05;34.58;;;13.98;;
30818;SDS011;17546;42.674;23.284;2023-03-15T04:03:30;29.08;;;13.43;;
30818;SDS011;17546;42.674;23.284;2023-03-15T04:05:57;31.75;;;13.25;;
30818;SDS011;17546;42.674;23.284;2023-03-15T04:08:24;28.48;;;13.55;;
30818;SDS011;17546;42.674;23.284;2023-03-15T04:10:57;28.02;;;12.88;;
30818;SDS011;17546;42.674;23.284;2023-03-15T04:13:23;30.30;;;13.35;;
30818;SDS011;17546;42.674;23.284;2023-03-15T04:15:50;28.08;;;12.90;;
30818;SDS011;17546;42.674;23.284;2023-03-15T04:18:16;37.78;;;13.73;;
30818;SDS011;17546;42.674;23.284;2023-03-15T04:20:42;25.58;;;12.55;;
30818;SDS011;17546;42.674;23.284;2023-03-15T04:23:14;28.38;;;13.48;;
30818;SDS011;17546;42.674;23.284;2023-03-15T04:25:43;32.47;;;13.25;;
30818;SDS011;17546;42.674;23.284;2023-03-15T04:28:12;30.55;;;12.77;;
30818;SDS011;17546;42.674;23.284;2023-03-15T04:30:37;29.95;;;12.88;;
30818;SDS011;17546;42.674;23.284;2023-03-15T04:33:03;30.88;;;13.55;;
30818;SDS011;17546;42.674;23.284;2023-03-15T04:35:30;38.70;;;14.07;;
30818;SDS011;17546;42.674;23.284;2023-03-15T04:37:59;30.60;;;15.15;;
30818;SDS011;17546;42.674;23.284;2023-03-15T04:40:25;34.40;;;13.93;;
30818;SDS011;17546;42.674;23.284;2023-03-15T04:42:59;33.83;;;13.70;;
30818;SDS011;17546;42.674;23.284;2023-03-15T04:45:26;30.55;;;14.68;;
30818;SDS011;17546;42.674;23.284;2023-03-15T04:47:55;30.08;;;14.00;;
30818;SDS011;17546;42.674;23.284;2023-03-15T04:50:21;33.50;;;13.80;;
30818;SDS011;17546;42.674;23.284;2023-03-15T04:52:48;36.88;;;14.82;;
30818;SDS011;17546;42.674;23.284;2023-03-15T04:55:13;39.80;;;14.25;;
30818;SDS011;17546;42.674;23.284;2023-03-15T04:57:39;36.38;;;15.38;;
30818;SDS011;17546;42.674;23.284;2023-03-15T05:00:04;34.25;;;15.07;;
30818;SDS011;17546;42.674;23.284;2023-03-15T05:02:31;34.03;;;14.73;;
30818;SDS011;17546;42.674;23.284;2023-03-15T05:05:08;33.35;;;15.40;;
30818;SDS011;17546;42.674;23.284;2023-03-15T05:07:35;29.90;;;14.80;;
30818;SDS011;17546;42.674;23.284;2023-03-15T05:10:01;29.60;;;14.65;;
30818;SDS011;17546;42.674;23.284;2023-03-15T05:12:29;28.40;;;14.23;;
30818;SDS011;17546;42.674;23.284;2023-03-15T05:14:55;29.45;;;13.55;;
30818;SDS011;17546;42.674;23.284;2023-03-15T05:17:20;31.92;;;14.38;;
30818;SDS011;17546;42.674;23.284;2023-03-15T05:19:46;35.72;;;14.38;;
30818;SDS011;17546;42.674;23.284;2023-03-15T05:22:15;37.72;;;15.60;;
30818;SDS011;17546;42.674;23.284;2023-03-15T05:24:41;36.22;;;15.45;;
30818;SDS011;17546;42.674;23.284;2023-03-15T05:27:07;35.03;;;16.02;;
30818;SDS011;17546;42.674;23.284;2023-03-15T05:29:33;32.08;;;15.75;;
30818;SDS011;17546;42.674;23.284;2023-03-15T05:31:59;34.63;;;16.13;;
30818;SDS011;17546;42.674;23.284;2023-03-15T05:34:28;33.08;;;15.73;;
30818;SDS011;17546;42.674;23.284;2023-03-15T05:36:56;32.92;;;14.32;;
30818;SDS011;17546;42.674;23.284;2023-03-15T05:39:22;28.77;;;14.40;;
30818;SDS011;17546;42.674;23.284;2023-03-15T05:41:48;44.20;;;14.73;;
30818;SDS011;17546;42.674;23.284;2023-03-15T05:44:14;32.83;;;13.82;;
30818;SDS011;17546;42.674;23.284;2023-03-15T05:46:39;31.52;;;13.30;;
30818;SDS011;17546;42.674;23.284;2023-03-15T05:49:05;31.85;;;11.98;;
30818;SDS011;17546;42.674;23.284;2023-03-15T05:51:30;19.65;;;9.25;;
30818;SDS011;17546;42.674;23.284;2023-03-15T05:53:56;34.60;;;9.77;;
30818;SDS011;17546;42.674;23.284;2023-03-15T05:56:21;27.67;;;9.52;;
30818;SDS011;17546;42.674;23.284;2023-03-15T05:58:46;23.60;;;8.30;;
30818;SDS011;17546;42.674;23.284;2023-03-15T06:01:12;21.88;;;7.47;;
30818;SDS011;17546;42.674;23.284;2023-03-15T06:03:37;16.27;;;6.88;;
30818;SDS011;17546;42.674;23.284;2023-03-15T06:06:03;14.18;;;6.90;;
30818;SDS011;17546;42.674;23.284;2023-03-15T06:08:29;18.63;;;7.65;;
30818;SDS011;17546;42.674;23.284;2023-03-15T06:10:54;18.52;;;7.63;;
30818;SDS011;17546;42.674;23.284;2023-03-15T06:13:20;29.60;;;8.27;;
30818;SDS011;17546;42.674;23.284;2023-03-15T06:15:46;16.05;;;7.47;;
30818;SDS011;17546;42.674;23.284;2023-03-15T06:18:12;18.77;;;7.75;;
30818;SDS011;17546;42.674;23.284;2023-03-15T06:20:38;23.95;;;6.78;;
30818;SDS011;17546;42.674;23.284;2023-03-15T06:23:05;18.58;;;6.47;;
30818;SDS011;17546;42.674;23.284;2023-03-15T06:25:31;18.55;;;7.00;;
30818;SDS011;17546;42.674;23.284;2023-03-15T06:27:56;16.92;;;7.53;;
30818;SDS011;17546;42.674;23.284;2023-03-15T06:30:22;16.80;;;7.22;;
30818;SDS011;17546;42.674;23.284;2023-03-15T06:32:47;15.98;;;6.63;;
30818;SDS011;17546;42.674;23.284;2023-03-15T06:35:13;16.10;;;6.30;;
30818;SDS011;17546;42.674;23.284;2023-03-15T06:37:38;18.60;;;6.18;;
30818;SDS011;17546;42.674;23.284;2023-03-15T06:40:06;20.33;;;6.90;;
30818;SDS011;17546;42.674;23.284;2023-03-15T06:42:33;17.65;;;6.60;;
30818;SDS011;17546;42.674;23.284;2023-03-15T06:44:59;17.85;;;6.78;;
30818;SDS011;17546;42.674;23.284;2023-03-15T06:47:25;17.95;;;6.50;;
30818;SDS011;17546;42.674;23.284;2023-03-15T06:49:50;16.65;;;6.30;;
30818;SDS011;17546;42.674;23.284;2023-03-15T06:52:16;25.00;;;6.90;;
30818;SDS011;17546;42.674;23.284;2023-03-15T06:54:42;17.38;;;6.60;;
30818;SDS011;17546;42.674;23.284;2023-03-15T06:57:07;26.80;;;8.50;;
30818;SDS011;17546;42.674;23.284;2023-03-15T06:59:33;10.00;;;4.78;;
30818;SDS011;17546;42.674;23.284;2023-03-15T07:02:01;16.35;;;4.93;;
30818;SDS011;17546;42.674;23.284;2023-03-15T07:04:27;20.42;;;5.80;;
30818;SDS011;17546;42.674;23.284;2023-03-15T07:06:52;13.90;;;5.85;;
30818;SDS011;17546;42.674;23.284;2023-03-15T07:09:18;16.60;;;5.80;;
30818;SDS011;17546;42.674;23.284;2023-03-15T07:11:44;13.55;;;5.65;;
30818;SDS011;17546;42.674;23.284;2023-03-15T07:14:09;16.45;;;5.53;;
30818;SDS011;17546;42.674;23.284;2023-03-15T07:16:35;16.48;;;6.22;;
30818;SDS011;17546;42.674;23.284;2023-03-15T07:19:02;12.05;;;5.20;;
30818;SDS011;17546;42.674;23.284;2023-03-15T07:21:28;9.55;;;5.43;;
30818;SDS011;17546;42.674;23.284;2023-03-15T07:23:54;25.27;;;6.10;;
30818;SDS011;17546;42.674;23.284;2023-03-15T07:26:20;21.88;;;6.00;;
30818;SDS011;17546;42.674;23.284;2023-03-15T07:28:46;19.55;;;6.20;;
30818;SDS011;17546;42.674;23.284;2023-03-15T07:31:11;13.60;;;6.35;;
30818;SDS011;17546;42.674;23.284;2023-03-15T07:33:40;24.90;;;6.78;;
30818;SDS011;17546;42.674;23.284;2023-03-15T07:36:06;16.75;;;6.93;;
30818;SDS011;17546;42.674;23.284;2023-03-15T07:38:33;21.15;;;8.15;;
30818;SDS011;17546;42.674;23.284;2023-03-15T07:41:03;25.48;;;7.90;;
30818;SDS011;17546;42.674;23.284;2023-03-15T07:43:30;18.48;;;8.00;;
30818;SDS011;17546;42.674;23.284;2023-03-15T07:45:56;16.92;;;6.85;;
30818;SDS011;17546;42.674;23.284;2023-03-15T07:48:22;22.40;;;8.23;;
30818;SDS011;17546;42.674;23.284;2023-03-15T07:50:47;21.92;;;7.65;;
30818;SDS011;17546;42.674;23.284;2023-03-15T07:53:13;23.85;;;8.40;;
30818;SDS011;17546;42.674;23.284;2023-03-15T07:55:43;22.83;;;7.63;;
30818;SDS011;17546;42.674;23.284;2023-03-15T07:58:17;20.23;;;7.30;;
30818;SDS011;17546;42.674;23.284;2023-03-15T08:00:43;15.68;;;7.68;;
30818;SDS011;17546;42.674;23.284;2023-03-15T08:03:11;21.70;;;7.00;;
30818;SDS011;17546;42.674;23.284;2023-03-15T08:05:39;17.63;;;7.47;;
30818;SDS011;17546;42.674;23.284;2023-03-15T08:08:05;13.77;;;7.35;;
30818;SDS011;17546;42.674;23.284;2023-03-15T08:10:31;18.65;;;6.47;;
30818;SDS011;17546;42.674;23.284;2023-03-15T08:12:56;15.55;;;7.43;;
30818;SDS011;17546;42.674;23.284;2023-03-15T08:15:22;16.90;;;6.32;;
30818;SDS011;17546;42.674;23.284;2023-03-15T08:17:47;17.25;;;6.25;;
30818;SDS011;17546;42.674;23.284;2023-03-15T08:20:13;16.20;;;6.25;;
30818;SDS011;17546;42.674;23.284;2023-03-15T08:22:42;17.08;;;6.10;;
30818;SDS011;17546;42.674;23.284;2023-03-15T08:25:11;12.20;;;5.78;;
30818;SDS011;17546;42.674;23.284;2023-03-15T08:27:39;16.80;;;5.10;;
30818;SDS011;17546;42.674;23.284;2023-03-15T08:30:06;15.85;;;5.55;;
30818;SDS011;17546;42.674;23.284;2023-03-15T08:32:32;10.70;;;5.22;;
30818;SDS011;17546;42.674;23.284;2023-03-15T08:34:58;10.32;;;5.03;;
30818;SDS011;17546;42.674;23.284;2023-03-15T08:37:23;14.40;;;5.40;;
30818;SDS011;17546;42.674;23.284;2023-03-15T08:39:52;15.57;;;5.07;;
30818;SDS011;17546;42.674;23.284;2023-03-15T08:42:24;16.67;;;5.30;;
30818;SDS011;17546;42.674;23.284;2023-03-15T08:44:51;15.65;;;5.70;;
30818;SDS011;17546;42.674;23.284;2023-03-15T08:47:16;14.45;;;5.22;;
30818;SDS011;17546;42.674;23.284;2023-03-15T08:49:42;15.40;;;5.78;;
30818;SDS011;17546;42.674;23.284;2023-03-15T08:52:07;14.80;;;5.75;;
30818;SDS011;17546;42.674;23.284;2023-03-15T08:54:33;10.02;;;5.18;;
30818;SDS011;17546;42.674;23.284;2023-03-15T08:56:58;13.98;;;6.22;;
30818;SDS011;17546;42.674;23.284;2023-03-15T08:59:24;13.60;;;5.88;;
30818;SDS011;17546;42.674;23.284;2023-03-15T09:01:49;13.60;;;6.22;;
30818;SDS011;17546;42.674;23.284;2023-03-15T09:04:15;13.98;;;6.25;;
30818;SDS011;17546;42.674;23.284;2023-03-15T09:06:40;19.70;;;6.22;;
30818;SDS011;17546;42.674;23.284;2023-03-15T09:09:06;28.27;;;7.30;;
30818;SDS011;17546;42.674;23.284;2023-03-15T09:11:47;16.60;;;5.80;;
30818;SDS011;17546;42.674;23.284;2023-03-15T09:14:13;14.60;;;6.18;;
30818;SDS011;17546;42.674;23.284;2023-03-15T09:16:38;16.42;;;6.03;;
30818;SDS011;17546;42.674;23.284;2023-03-15T09:19:04;15.75;;;5.88;;
30818;SDS011;17546;42.674;23.284;2023-03-15T09:21:29;17.75;;;5.85;;
30818;SDS011;17546;42.674;23.284;2023-03-15T09:23:55;17.50;;;6.07;;
30818;SDS011;17546;42.674;23.284;2023-03-15T09:26:21;11.18;;;5.28;;
30818;SDS011;17546;42.674;23.284;2023-03-15T09:28:47;13.90;;;6.10;;
30818;SDS011;17546;42.674;23.284;2023-03-15T09:31:13;12.38;;;5.65;;
30818;SDS011;17546;42.674;23.284;2023-03-15T09:33:38;21.20;;;6.40;;
30818;SDS011;17546;42.674;23.284;2023-03-15T09:36:04;16.98;;;6.15;;
30818;SDS011;17546;42.674;23.284;2023-03-15T09:38:29;14.13;;;5.95;;
30818;SDS011;17546;42.674;23.284;2023-03-15T09:40:56;24.40;;;7.30;;
30818;SDS011;17546;42.674;23.284;2023-03-15T09:43:30;14.55;;;5.97;;
30818;SDS011;17546;42.674;23.284;2023-03-15T09:48:54;19.02;;;5.75;;
30818;SDS011;17546;42.674;23.284;2023-03-15T09:54:19;11.45;;;4.72;;
30818;SDS011;17546;42.674;23.284;2023-03-15T09:57:03;11.98;;;5.40;;
30818;SDS011;17546;42.674;23.284;2023-03-15T09:59:35;17.42;;;5.30;;
30818;SDS011;17546;42.674;23.284;2023-03-15T10:02:23;14.30;;;4.82;;
30818;SDS011;17546;42.674;23.284;2023-03-15T10:05:33;17.33;;;5.47;;
30818;SDS011;17546;42.674;23.284;2023-03-15T10:07:46;17.98;;;4.90;;
30818;SDS011;17546;42.674;23.284;2023-03-15T10:10:22;16.50;;;4.72;;
30818;SDS011;17546;42.674;23.284;2023-03-15T10:15:35;15.23;;;5.55;;
30818;SDS011;17546;42.674;23.284;2023-03-15T10:21:05;23.13;;;7.55;;
30818;SDS011;17546;42.674;23.284;2023-03-15T10:23:45;19.35;;;7.15;;
30818;SDS011;17546;42.674;23.284;2023-03-15T10:26:25;15.18;;;6.03;;
30818;SDS011;17546;42.674;23.284;2023-03-15T10:28:54;14.90;;;6.30;;
30818;SDS011;17546;42.674;23.284;2023-03-15T10:31:21;12.70;;;5.80;;
30818;SDS011;17546;42.674;23.284;2023-03-15T10:33:50;13.52;;;6.30;;
30818;SDS011;17546;42.674;23.284;2023-03-15T10:36:20;14.45;;;5.32;;
30818;SDS011;17546;42.674;23.284;2023-03-15T10:38:47;15.25;;;5.40;;
30818;SDS011;17546;42.674;23.284;2023-03-15T10:41:35;10.98;;;4.65;;
30818;SDS011;17546;42.674;23.284;2023-03-15T10:49:40;12.20;;;5.13;;
30818;SDS011;17546;42.674;23.284;2023-03-15T10:52:06;15.63;;;5.07;;
30818;SDS011;17546;42.674;23.284;2023-03-15T10:54:48;10.93;;;5.03;;
30818;SDS011;17546;42.674;23.284;2023-03-15T10:57:15;17.42;;;5.75;;
30818;SDS011;17546;42.674;23.284;2023-03-15T11:02:33;19.33;;;5.10;;
30818;SDS011;17546;42.674;23.284;2023-03-15T11:05:13;15.25;;;5.38;;
30818;SDS011;17546;42.674;23.284;2023-03-15T11:07:56;17.60;;;5.88;;
30818;SDS011;17546;42.674;23.284;2023-03-15T11:10:24;19.30;;;8.00;;
30818;SDS011;17546;42.674;23.284;2023-03-15T11:13:26;17.95;;;5.78;;
30818;SDS011;17546;42.674;23.284;2023-03-15T11:15:58;22.23;;;5.93;;
30818;SDS011;17546;42.674;23.284;2023-03-15T11:18:27;14.75;;;6.13;;
30818;SDS011;17546;42.674;23.284;2023-03-15T11:20:55;16.27;;;7.00;;
30818;SDS011;17546;42.674;23.284;2023-03-15T11:23:26;20.02;;;6.07;;
30818;SDS011;17546;42.674;23.284;2023-03-15T11:25:55;16.42;;;6.72;;
30818;SDS011;17546;42.674;23.284;2023-03-15T11:28:25;15.38;;;5.47;;
30818;SDS011;17546;42.674;23.284;2023-03-15T11:30:54;16.25;;;5.22;;
30818;SDS011;17546;42.674;23.284;2023-03-15T11:36:17;14.15;;;5.10;;
30818;SDS011;17546;42.674;23.284;2023-03-15T11:38:46;14.88;;;5.20;;
30818;SDS011;17546;42.674;23.284;2023-03-15T11:46:41;15.90;;;5.38;;
30818;SDS011;17546;42.674;23.284;2023-03-15T11:51:59;21.35;;;5.80;;
30818;SDS011;17546;42.674;23.284;2023-03-15T11:54:27;18.05;;;5.30;;
30818;SDS011;17546;42.674;23.284;2023-03-15T11:57:03;8.70;;;4.55;;
30818;SDS011;17546;42.674;23.284;2023-03-15T11:59:32;13.85;;;4.95;;
30818;SDS011;17546;42.674;23.284;2023-03-15T12:04:43;15.45;;;4.85;;
30818;SDS011;17546;42.674;23.284;2023-03-15T12:09:54;10.45;;;5.13;;
30818;SDS011;17546;42.674;23.284;2023-03-15T12:17:41;17.50;;;4.53;;
30818;SDS011;17546;42.674;23.284;2023-03-15T12:22:43;11.80;;;4.60;;
30818;SDS011;17546;42.674;23.284;2023-03-15T12:25:43;16.52;;;5.28;;
30818;SDS011;17546;42.674;23.284;2023-03-15T12:28:20;11.38;;;4.90;;
30818;SDS011;17546;42.674;23.284;2023-03-15T12:30:51;18.70;;;6.22;;
30818;SDS011;17546;42.674;23.284;2023-03-15T12:33:20;13.90;;;6.30;;
30818;SDS011;17546;42.674;23.284;2023-03-15T12:35:48;11.18;;;5.57;;
30818;SDS011;17546;42.674;23.284;2023-03-15T12:38:18;14.20;;;6.20;;
30818;SDS011;17546;42.674;23.284;2023-03-15T12:40:51;11.32;;;5.90;;
30818;SDS011;17546;42.674;23.284;2023-03-15T12:43:37;15.90;;;5.05;;
30818;SDS011;17546;42.674;23.284;2023-03-15T12:46:07;11.40;;;5.13;;
30818;SDS011;17546;42.674;23.284;2023-03-15T12:51:43;9.77;;;4.25;;
30818;SDS011;17546;42.674;23.284;2023-03-15T12:54:19;10.27;;;4.50;;
30818;SDS011;17546;42.674;23.284;2023-03-15T12:56:48;11.07;;;4.28;;
30818;SDS011;17546;42.674;23.284;2023-03-15T13:01:57;10.45;;;4.07;;
30818;SDS011;17546;42.674;23.284;2023-03-15T13:04:27;12.55;;;3.80;;
30818;SDS011;17546;42.674;23.284;2023-03-15T13:12:32;9.73;;;3.85;;
30818;SDS011;17546;42.674;23.284;2023-03-15T13:15:11;12.23;;;3.65;;
30818;SDS011;17546;42.674;23.284;2023-03-15T13:17:54;9.02;;;3.97;;
30818;SDS011;17546;42.674;23.284;2023-03-15T13:23:14;11.57;;;3.78;;
30818;SDS011;17546;42.674;23.284;2023-03-15T13:28:23;10.73;;;4.35;;
30818;SDS011;17546;42.674;23.284;2023-03-15T13:30:52;6.63;;;3.40;;
30818;SDS011;17546;42.674;23.284;2023-03-15T13:36:11;12.98;;;3.67;;
30818;SDS011;17546;42.674;23.284;2023-03-15T13:38:43;13.27;;;4.38;;
30818;SDS011;17546;42.674;23.284;2023-03-15T13:41:15;8.30;;;3.90;;
30818;SDS011;17546;42.674;23.284;2023-03-15T13:43:49;13.90;;;3.70;;
30818;SDS011;17546;42.674;23.284;2023-03-15T13:46:18;6.25;;;3.58;;
30818;SDS011;17546;42.674;23.284;2023-03-15T13:48:49;9.85;;;3.55;;
30818;SDS011;17546;42.674;23.284;2023-03-15T13:51:25;10.38;;;3.65;;
30818;SDS011;17546;42.674;23.284;2023-03-15T13:53:55;10.77;;;3.20;;
30818;SDS011;17546;42.674;23.284;2023-03-15T13:56:33;8.20;;;3.40;;
30818;SDS011;17546;42.674;23.284;2023-03-15T13:59:20;9.32;;;2.90;;
30818;SDS011;17546;42.674;23.284;2023-03-15T14:01:47;9.93;;;3.28;;
30818;SDS011;17546;42.674;23.284;2023-03-15T14:04:18;10.15;;;3.95;;
30818;SDS011;17546;42.674;23.284;2023-03-15T14:06:46;10.18;;;3.63;;
30818;SDS011;17546;42.674;23.284;2023-03-15T14:09:20;8.93;;;3.50;;
30818;SDS011;17546;42.674;23.284;2023-03-15T14:12:03;12.48;;;3.67;;
30818;SDS011;17546;42.674;23.284;2023-03-15T14:14:33;10.43;;;3.88;;
30818;SDS011;17546;42.674;23.284;2023-03-15T14:17:06;15.90;;;4.13;;
30818;SDS011;17546;42.674;23.284;2023-03-15T14:19:33;11.27;;;4.30;;
30818;SDS011;17546;42.674;23.284;2023-03-15T14:22:02;14.70;;;5.30;;
30818;SDS011;17546;42.674;23.284;2023-03-15T14:24:46;11.65;;;3.90;;
30818;SDS011;17546;42.674;23.284;2023-03-15T14:27:16;10.73;;;3.28;;
30818;SDS011;17546;42.674;23.284;2023-03-15T14:29:48;6.97;;;3.50;;
30818;SDS011;17546;42.674;23.284;2023-03-15T14:32:35;10.13;;;3.65;;
30818;SDS011;17546;42.674;23.284;2023-03-15T14:35:06;14.15;;;3.95;;
30818;SDS011;17546;42.674;23.284;2023-03-15T14:38:08;9.73;;;4.40;;
30818;SDS011;17546;42.674;23.284;2023-03-15T14:40:43;13.18;;;4.32;;
30818;SDS011;17546;42.674;23.284;2023-03-15T14:43:09;11.52;;;4.15;;
30818;SDS011;17546;42.674;23.284;2023-03-15T14:45:36;11.02;;;4.80;;
30818;SDS011;17546;42.674;23.284;2023-03-15T14:48:11;11.63;;;4.15;;
30818;SDS011;17546;42.674;23.284;2023-03-15T14:50:39;10.35;;;4.20;;
30818;SDS011;17546;42.674;23.284;2023-03-15T14:53:08;12.32;;;4.32;;
30818;SDS011;17546;42.674;23.284;2023-03-15T14:55:50;13.60;;;5.00;;
30818;SDS011;17546;42.674;23.284;2023-03-15T14:58:17;9.63;;;4.50;;
30818;SDS011;17546;42.674;23.284;2023-03-15T15:00:45;13.13;;;4.70;;
30818;SDS011;17546;42.674;23.284;2023-03-15T15:03:16;9.65;;;4.28;;
30818;SDS011;17546;42.674;23.284;2023-03-15T15:05:42;12.25;;;4.32;;
30818;SDS011;17546;42.674;23.284;2023-03-15T15:08:10;9.50;;;4.32;;
30818;SDS011;17546;42.674;23.284;2023-03-15T15:10:38;11.77;;;4.00;;
30818;SDS011;17546;42.674;23.284;2023-03-15T15:13:05;15.55;;;4.72;;
30818;SDS011;17546;42.674;23.284;2023-03-15T15:15:31;10.98;;;4.18;;
30818;SDS011;17546;42.674;23.284;2023-03-15T15:17:57;18.15;;;5.18;;
30818;SDS011;17546;42.674;23.284;2023-03-15T15:20:22;12.10;;;4.57;;
30818;SDS011;17546;42.674;23.284;2023-03-15T15:22:48;9.88;;;5.28;;
30818;SDS011;17546;42.674;23.284;2023-03-15T15:25:15;13.98;;;6.10;;
30818;SDS011;17546;42.674;23.284;2023-03-15T15:27:42;21.30;;;5.90;;
30818;SDS011;17546;42.674;23.284;2023-03-15T15:30:10;15.68;;;5.50;;
30818;SDS011;17546;42.674;23.284;2023-03-15T15:32:40;11.50;;;5.40;;
30818;SDS011;17546;42.674;23.284;2023-03-15T15:35:06;11.85;;;5.53;;
30818;SDS011;17546;42.674;23.284;2023-03-15T15:37:33;12.13;;;4.70;;